CheckWX is a tool to help pilots better visualize weather data.  It is not intended as a substitute for an official pre-flight weather briefing.

09:27:43 UTC

CYEV METAR
Inuvik Mike Zubko Airport
Inuvik, Canada
Current

28 mins ago

CYEV 200900Z 30011KT 15SM -SN DRSN SCT013 OVC055 M14/M17 A3026 RMK ST4SC4 SLP257
Observed
Feb-20 @ 09:00 UTC
Wind
  • 300° at 11 KTS
Visibility
24,140 meters
Flight Rules
VFR
Conditions
Light Snow, Low drifting Snow
Cloud Levels
  • Scattered at 1,300' AGL
  • Overcast at 5,500' AGL
Temperature
-14°C / 7°F
Dewpoint
-17°C / 1°F
Humidity
78%
Altimeter
30.26" Hg
Pressure
1025.7 hPa
Previous

1 hour ago

CYEV 200800Z 30009G22KT 15SM -SN DRSN FEW011 OVC057 M14/M17 A3022 RMK ST2SC6 SLP245
Observed
Feb-20 @ 08:00 UTC
Wind
  • 300° at 9 KTS
  • Gusting to 22 KTS
Visibility
24,140 meters
Flight Rules
VFR
Conditions
Light Snow, Low drifting Snow
Cloud Levels
  • Few at 1,100' AGL
  • Overcast at 5,700' AGL
Temperature
-14°C / 7°F
Dewpoint
-17°C / 1°F
Humidity
78%
Altimeter
30.22" Hg
Pressure
1024.5 hPa
Previous

2 hours ago

CYEV 200700Z 31014G20KT 15SM -SN DRSN OVC049 M12/M16 A3020 RMK SC8 SLP237
Observed
Feb-20 @ 07:00 UTC
Wind
  • 310° at 14 KTS
  • Gusting to 20 KTS
Visibility
24,140 meters
Flight Rules
VFR
Conditions
Light Snow, Low drifting Snow
Cloud Levels
  • Overcast at 4,900' AGL
Temperature
-12°C / 10°F
Dewpoint
-16°C / 3°F
Humidity
72%
Altimeter
30.2" Hg
Pressure
1023.7 hPa